• Join FlightAware (Why Join?)
  • Login
  • US Flag 
04:29AM EDT


 

Airport Tracker/Info


-or-


 

Live Flight TrackerFlight Track Log ✈ N2148E ✈ 25-Apr-2012 ✈ KMIA - KFPR

Flight Track Log - Related Links

Times and Time Zones

All times are in EDT time to prevent confusion due to time zone crossing. See the N2148E flight status page for this flight to view local times or setup timezone preferences in your user account.

Time Position Orientation Groundspeed Altitude Reporting Facility
EDT Latitude Longitude Course Direction KTS MPH feet Rate Location/Type
09:26PM 26.2253 -80.7381 North 103 119 2,100  Level Miami Center
09:27PM 26.2544 -80.7344 North 103 119 2,100  Level Miami Center
09:28PM 26.2839 -80.7331 358° North 103 119 2,100  Level Miami Center
09:29PM 26.3131 -80.7342 North 103 119 2,100  Level Miami Center
09:30PM 26.3425 -80.7306 North 103 119 2,100 180 Level Miami Center
09:31PM 26.3675 -80.7267 North 103 119 2,500 180 Climbing Miami Center
09:32PM 26.3947 -80.7228 North 98 113 2,500  Level Miami Center
09:33PM 26.4200 -80.7192 11° North 98 113 2,600  Climbing Miami Center
09:34PM 26.4472 -80.7131 12° North 93 107 2,500  Descending Miami Center
09:35PM 26.4725 -80.7069 North 86 99 2,600  Climbing Miami Center
09:36PM 26.4956 -80.7053 North 86 99 2,500 -60 Descending Miami Center
09:37PM 26.5247 -80.7017 North 86 99 2,500  Level Miami Center
09:38PM 26.5478 -80.7000 North 86 99 2,500  Level Miami Center
09:39PM 26.5772 -80.6986 North 91 105 2,500  Level Miami Center
09:40PM 26.6022 -80.6950 North 91 105 2,500  Level Miami Center
09:41PM 26.6294 -80.6933 North 89 102 2,500  Level Miami Center
09:42PM 26.6525 -80.6919 North 84 97 2,500 -540 Level Miami Center
09:43PM 26.6817 -80.6906 12° North 89 102 1,500  Descending Miami Center
09:44PM 26.7069 -80.6844 North 89 102 2,500 480 Climbing Miami Center
09:45PM 26.7342 -80.6806 17° North 89 102 2,500  Level Miami Center
09:46PM 26.7594 -80.6719 12° North 89 102 2,500  Level Miami Center
09:47PM 26.7847 -80.6658 15° North 89 102 2,500  Level Miami Center
09:48PM 26.8119 -80.6575 14° North 94 108 2,500  Level Miami Center
09:55PM 26.9825 -80.6094 North 97 112 2,500  Level Miami Center
09:56PM 27.0117 -80.6081 North 98 113 2,500  Level Miami Center
09:57PM 27.0369 -80.6067 359° North 114 131 2,500  Level Miami Center
09:58PM 27.0619 -80.6072 358° North 108 124 2,500  Level Miami Center
09:59PM 27.0889 -80.6083 North 100 115 2,500  Level Miami Center
10:00PM 27.1183 -80.6044 28° Northeast 100 115 2,500  Level Miami Center
10:01PM 27.1439 -80.5889 31° Northeast 100 115 2,500  Level Miami Center
10:02PM 27.1672 -80.5733 23° Northeast 94 108 2,500  Level Miami Center
10:03PM 27.1903 -80.5625 16° North 94 108 2,500  Level Miami Center
10:04PM 27.2178 -80.5539 North 94 108 2,500  Level Miami Center
10:05PM 27.2492 -80.5503 North 89 102 2,500  Level Miami Center
10:06PM 27.2764 -80.5489 358° North 89 102 2,500 -180 Level Miami Center
10:07PM 27.3033 -80.5497 354° North 89 102 2,200 -300 Descending Miami Center
10:08PM 27.3306 -80.5531 North 96 110 2,000 -60 Descending Miami Center
10:09PM 27.3597 -80.5492 North 96 110 2,100  Climbing Miami Center
10:10PM 27.3892 -80.5478 North 101 116 2,100  Level Miami Center
10:11PM 27.4183 -80.5464 North 101 116 2,100  Level Miami Center